< < Back
Terminal Aerodrome Forecast


Current Version              Previous Versions:   1  2  3  4  5  6  7  8  9  

Terminal Aerodrome Forecast

441
FTUS42 KCAE 302300
TAFAGS
TAF
KAGS 302326Z 3100/3124 32007KT P6SM SKC
     FM310600 00000KT P6SM SKC
     FM312000 21005KT P6SM FEW250=

Latest METAR

187
SAUS70 KWBC 310500 RRH
MTRAGS
METAR KAGS 310453Z AUTO 00000KT 10SM CLR 00/M07 A3033 RMK AO2 SLP270
T00001067 401440000


USA.gov is the U.S. government's official web portal to all federal, state and local government web resources and services.